Latest Weather Observations for Beaudesert AWS

IDQ60901

Issued at 6:11 pm EST Monday 2 May 2016 (issued every 10 minutes, with the page automatically refreshed every 10 minutes)

About weather observations | Map of Brisbane area stations | Latest observations for Brisbane area | Other Formats
Station Details ID: 040983 Name: BEAUDESERT DRUMLEY STREET Lat: -27.97 Lon: 152.99 Height: 47.81 m
Data from the previous 72 hours. | See also: Recent months at Beaudesert AWS
Date/Time
EST
Tmp

°C
App
Tmp
°C
Dew
Point
°C
Rel
Hum
%
Delta-T

°C
Wind Press
QNH
hPa
Press
MSL
hPa
Rain
since
9 am
mm
Dir
 
Spd
km/h
Gust
km/h
Spd
kts
Gust
kts
02/06:00pm 23.3 26.1 19.7 80 2.3 N 4 6 2 3 1015.1 1015.0 0.2
02/05:30pm 23.8 26.6 19.7 78 2.6 NNE 4 6 2 3 1014.6 1014.5 0.2
02/05:00pm 24.3 27.1 19.6 75 3.0 NE 4 9 2 5 1014.3 1014.2 0.2
02/04:30pm 25.1 27.3 19.5 71 3.6 NE 7 15 4 8 1013.6 1013.5 0.2
02/04:00pm 25.7 27.8 19.3 67 4.1 NNE 7 15 4 8 1013.5 1013.4 0.2
02/03:30pm 26.3 27.6 19.2 65 4.6 NNE 11 19 6 10 1013.2 1013.1 0.2
02/03:00pm 27.4 29.6 19.5 62 5.1 NNE 7 13 4 7 1012.9 1012.8 0.2
02/02:30pm 27.3 28.2 18.3 58 5.7 NNE 11 17 6 9 1012.9 1012.8 0.2
02/02:00pm 28.3 30.5 19.2 57 5.9 NE 6 13 3 7 1013.2 1013.1 0.2
02/01:30pm 27.4 29.8 18.9 59 5.5 NW 4 7 2 4 1013.8 1013.7 0.2
02/01:00pm 27.0 29.1 18.0 58 5.7 SSE 4 7 2 4 1014.1 1014.0 0.2
02/12:30pm 26.9 29.5 18.5 60 5.4 ESE 2 6 1 3 1014.7 1014.6 0.2
02/12:00pm 26.6 28.8 19.2 64 4.8 WNW 6 9 3 5 1015.2 1015.1 0.2
02/11:30am 25.8 29.0 19.7 69 4.0 W 2 6 1 3 1015.8 1015.7 0.2
02/11:00am 24.8 27.8 19.2 71 3.6 WSW 2 4 1 2 1016.4 1016.3 0.0
02/10:30am 24.4 27.0 19.2 73 3.3 W 4 6 2 3 1016.9 1016.8 0.0
02/10:00am 23.5 26.6 19.6 79 2.5 W 2 7 1 4 1017.3 1017.2 0.0
02/09:30am 21.9 25.9 20.5 92 0.9 CALM 0 0 0 0 1017.5 1017.4 0.0
02/09:00am 20.5 23.6 20.2 98 0.2 S 4 6 2 3 1017.7 1017.6 0.0
02/08:30am 19.3 21.8 19.1 99 0.1 SSW 4 6 2 3 1017.6 1017.5 0.0
02/08:00am 18.7 21.7 18.5 99 0.1 CALM 0 0 0 0 1017.5 1017.4 0.0
02/07:30am 18.5 21.4 18.3 99 0.1 CALM 0 0 0 0 1017.4 1017.3 0.0
02/07:00am 18.3 20.8 18.1 99 0.1 SSW 2 6 1 3 1017.3 1017.2 0.0
02/06:30am 18.2 21.0 18.0 99 0.1 CALM 0 0 0 0 1017.1 1017.0 0.0
02/06:00am 18.3 21.2 18.1 99 0.1 CALM 0 0 0 0 1016.7 1016.6 0.0
02/05:30am 18.1 20.9 17.9 99 0.1 CALM 0 0 0 0 1016.4 1016.3 0.0
02/05:00am 17.9 20.6 17.7 99 0.1 CALM 0 0 0 0 1016.1 1016.0 0.0
02/04:30am 18.1 20.5 17.9 99 0.1 S 2 6 1 3 1015.8 1015.7 0.0
02/04:00am 17.8 20.4 17.5 98 0.2 CALM 0 0 0 0 1015.4 1015.3 0.0
02/03:30am 18.7 21.7 18.5 99 0.1 CALM 0 2 0 1 1015.5 1015.4 0.0
02/03:00am 18.7 21.3 18.5 99 0.1 W 2 4 1 2 1015.7 1015.6 0.0
02/02:30am 18.8 21.1 18.6 99 0.1 ENE 4 7 2 4 1015.8 1015.7 0.0
02/02:00am 18.3 20.4 18.1 99 0.1 SE 4 6 2 3 1015.9 1015.8 0.0
02/01:30am 18.1 20.1 17.9 99 0.1 SSW 4 7 2 4 1015.8 1015.7 0.0
02/01:00am 18.6 21.2 18.4 99 0.1 ENE 2 2 1 1 1015.1 1015.0 0.0
02/12:30am 18.2 20.2 17.9 98 0.2 SSW 4 6 2 3 1015.8 1015.7 0.0
02/12:00am 19.0 22.1 18.7 98 0.2 CALM 0 0 0 0 1016.0 1015.9 0.0
 
Date/Time
EST
Tmp

°C
App
Tmp
°C
Dew
Point
°C
Rel
Hum
%
Delta-T

°C
Wind Press
QNH
hPa
Press
MSL
hPa
Rain
since
9 am
mm
Dir
 
Spd
km/h
Gust
km/h
Spd
kts
Gust
kts
01/11:30pm 18.9 21.9 18.4 97 0.3 CALM 0 4 0 2 1016.3 1016.2 0.0
01/11:00pm 19.1 21.8 18.6 97 0.3 E 2 6 1 3 1017.2 1017.1 0.0
01/10:30pm 19.1 22.2 18.6 97 0.3 CALM 0 0 0 0 1017.2 1017.1 0.0
01/10:00pm 19.2 21.6 18.7 97 0.3 WNW 4 4 2 2 1017.2 1017.1 0.0
01/09:30pm 19.1 21.8 18.6 97 0.3 SE 2 7 1 4 1017.1 1017.0 0.0
01/09:00pm 19.0 22.0 18.5 97 0.3 CALM 0 0 0 0 1017.4 1017.3 0.0
01/08:30pm 18.5 20.8 17.7 95 0.5 S 2 6 1 3 1017.4 1017.3 0.0
01/08:00pm 19.1 21.7 18.4 96 0.4 ENE 2 7 1 4 1017.0 1016.9 0.0
01/07:30pm 19.6 22.0 18.9 96 0.4 ENE 4 6 2 3 1016.9 1016.8 0.0
01/07:00pm 18.6 20.0 17.3 92 0.8 WSW 6 7 3 4 1017.0 1016.9 0.0
01/06:30pm 20.2 23.3 18.7 91 0.9 CALM 0 0 0 0 1016.1 1016.0 0.0
01/06:00pm 20.9 24.1 18.8 88 1.3 CALM 0 0 0 0 1015.9 1015.8 0.0
01/05:30pm 22.4 25.3 19.0 81 2.2 NE 2 4 1 2 1015.6 1015.5 0.0
01/05:00pm 23.6 26.8 18.9 75 3.0 CALM 0 2 0 1 1015.6 1015.5 0.0
01/04:30pm 24.3 27.0 19.4 74 3.1 E 4 6 2 3 1015.6 1015.5 0.0
01/04:00pm 24.4 27.2 19.7 75 3.0 ENE 4 9 2 5 1015.4 1015.3 0.0
01/03:30pm 24.5 27.6 20.2 77 2.8 ENE 4 7 2 4 1015.6 1015.5 0.0
01/03:00pm 24.3 27.1 20.4 79 2.5 E 6 7 3 4 1015.6 1015.5 0.0
01/02:30pm 24.2 27.6 20.1 78 2.7 E 2 4 1 2 1015.8 1015.7 0.0
01/02:00pm 24.2 27.3 20.3 79 2.5 ENE 4 7 2 4 1015.5 1015.4 0.0
01/01:30pm 24.3 27.2 19.8 76 2.9 NE 4 6 2 3 1015.7 1015.6 0.0
01/01:00pm 24.1 27.3 19.8 77 2.8 ENE 2 4 1 2 1016.4 1016.3 0.0
01/12:30pm 23.9 27.2 20.0 79 2.5 NNE 2 4 1 2 1017.0 1016.9 0.0
01/12:00pm 23.5 26.7 20.6 84 1.9 NNE 4 7 2 4 1017.4 1017.3 0.0
01/11:30am 23.3 27.1 21.0 87 1.5 WNW 2 7 1 4 1018.0 1017.9 0.0
01/11:00am 22.8 26.6 20.9 89 1.2 N 2 4 1 2 1018.4 1018.4 0.0
01/10:30am 22.4 26.6 20.9 91 1.0 CALM 0 0 0 0 1019.0 1019.0 0.0
01/10:00am 21.9 25.1 20.5 92 0.9 ENE 4 7 2 4 1019.1 1019.1 0.0
01/09:30am 21.9 25.3 20.9 94 0.7 NNE 4 6 2 3 1019.5 1019.4 0.0
01/09:00am 21.3 25.1 21.0 98 0.2 W 2 4 1 2 1019.9 1019.8 4.4
01/08:30am 20.9 24.2 20.7 99 0.1 NNE 4 6 2 3 1019.8 1019.7 4.2
01/08:00am 20.1 23.4 19.9 99 0.1 SW 2 4 1 2 1019.9 1019.8 3.6
01/07:30am 20.0 23.6 19.8 99 0.1 CALM 0 2 0 1 1019.6 1019.5 3.2
01/07:00am 19.5 22.5 19.2 98 0.2 W 2 4 1 2 1019.1 1019.0 3.0
01/06:30am 19.4 22.7 19.1 98 0.2 CALM 0 0 0 0 1019.0 1018.9 3.0
01/06:00am 19.1 22.3 18.8 98 0.2 CALM 0 0 0 0 1018.9 1018.8 1.8
01/05:30am 19.2 22.4 18.9 98 0.2 CALM 0 0 0 0 1018.3 1018.2 1.8
01/05:00am 19.0 22.1 18.7 98 0.2 CALM 0 6 0 3 1018.1 1018.0 1.6
01/04:30am 18.9 21.9 18.4 97 0.3 CALM 0 0 0 0 1018.1 1018.0 1.2
01/04:00am 18.9 22.0 18.6 98 0.2 CALM 0 2 0 1 1017.9 1017.8 0.8
01/03:30am 18.8 21.8 18.5 98 0.2 CALM 0 4 0 2 1018.0 1017.9 0.4
01/03:00am 18.5 20.7 18.3 99 0.1 SE 4 4 2 2 1018.1 1018.0 0.4
01/02:30am 18.4 20.9 18.1 98 0.2 S 2 4 1 2 1018.2 1018.1 0.4
01/02:00am 18.2 20.9 17.7 97 0.3 CALM 0 0 0 0 1018.5 1018.4 0.4
01/01:30am 18.3 21.0 17.8 97 0.3 CALM 0 0 0 0 1018.8 1018.7 0.4
01/01:00am 18.7 21.7 18.5 99 0.1 CALM 0 0 0 0 1019.3 1019.2 0.4
01/12:30am 18.1 20.7 17.5 96 0.4 CALM 0 0 0 0 1019.4 1019.3 0.4
01/12:00am 18.5 21.2 17.7 95 0.5 CALM 0 0 0 0 1019.7 1019.6 0.4
 
Date/Time
EST
Tmp

°C
App
Tmp
°C
Dew
Point
°C
Rel
Hum
%
Delta-T

°C
Wind Press
QNH
hPa
Press
MSL
hPa
Rain
since
9 am
mm
Dir
 
Spd
km/h
Gust
km/h
Spd
kts
Gust
kts
30/11:30pm 19.1 21.8 18.6 97 0.3 ESE 2 4 1 2 1019.9 1019.8 0.4
30/11:00pm 18.7 21.5 18.0 96 0.4 CALM 0 0 0 0 1020.0 1019.9 0.4
30/10:30pm 18.9 21.8 18.2 96 0.4 CALM 0 0 0 0 1020.3 1020.2 0.4
30/10:00pm 18.7 21.4 17.7 94 0.6 CALM 0 0 0 0 1020.3 1020.2 0.4
30/09:30pm 18.7 21.3 17.4 92 0.8 CALM 0 0 0 0 1020.4 1020.3 0.4
30/09:00pm 19.6 22.5 18.3 92 0.8 CALM 0 0 0 0 1020.4 1020.3 0.4
30/08:30pm 20.0 22.9 18.3 90 1.1 CALM 0 0 0 0 1020.3 1020.2 0.4
30/08:00pm 20.6 23.6 18.5 88 1.3 CALM 0 0 0 0 1020.1 1020.0 0.4
30/07:30pm 22.1 25.2 19.6 86 1.6 ENE 2 4 1 2 1019.7 1019.6 0.4
30/07:00pm 22.3 25.5 19.7 85 1.7 ENE 2 7 1 4 1019.6 1019.5 0.4
30/06:30pm 22.5 25.2 19.5 83 1.9 ENE 4 6 2 3 1019.4 1019.3 0.4
30/06:00pm 23.1 26.1 19.3 79 2.4 ENE 2 4 1 2 1019.3 1019.2 0.4
30/05:30pm 23.9 26.0 19.4 76 2.9 ENE 7 13 4 7 1018.9 1018.8 0.4
30/05:00pm 24.8 26.5 19.4 72 3.5 ENE 9 19 5 10 1018.5 1018.4 0.4
30/04:30pm 25.4 27.6 19.5 70 3.8 NE 7 11 4 6 1018.2 1018.1 0.4
30/04:00pm 24.8 27.8 20.9 79 2.6 E 6 9 3 5 1018.0 1017.9 0.4
30/03:30pm 24.9 25.5 19.5 72 3.5 E 15 24 8 13 1017.9 1017.8 0.2
30/03:00pm 27.2 29.3 19.3 62 5.1 NE 7 13 4 7 1017.9 1017.8 0.0
30/02:30pm 27.7 29.4 18.4 57 5.9 ESE 7 15 4 8 1017.8 1017.7 0.0
30/02:00pm 27.4 29.2 18.7 59 5.6 ESE 7 13 4 7 1018.0 1017.9 0.0
30/01:30pm 27.5 29.1 18.2 57 5.9 E 7 15 4 8 1018.2 1018.1 0.0
30/01:00pm 27.4 29.5 18.1 57 5.9 SW 4 6 2 3 1018.5 1018.4 0.0
30/12:30pm 27.4 29.2 18.4 58 5.7 W 6 7 3 4 1019.2 1019.1 0.0
30/12:00pm 27.2 29.3 18.2 58 5.7 NE 4 9 2 5 1019.7 1019.6 0.0
30/11:30am 27.1 29.5 18.9 61 5.3 NW 4 7 2 4 1020.4 1020.3 0.0
30/11:00am 26.6 29.5 19.0 63 4.9 S 2 6 1 3 1020.9 1020.8 0.0
30/10:30am 26.2 28.6 18.9 64 4.7 SE 4 6 2 3 1021.5 1021.4 0.0
30/10:00am 24.9 27.8 19.1 70 3.7 S 2 4 1 2 1021.9 1021.8 0.0
30/09:30am 23.8 26.5 18.7 73 3.2 SW 2 6 1 3 1022.1 1022.0 0.0
30/09:00am 22.0 23.9 17.6 76 2.7 SSW 4 6 2 3 1022.2 1022.1 0.2
30/08:30am 20.9 23.0 17.3 80 2.2 SSW 2 7 1 4 1022.2 1022.1 0.2
30/08:00am 19.5 21.5 16.9 85 1.6 S 2 4 1 2 1022.2 1022.1 0.2
30/07:30am 18.5 20.4 16.7 89 1.1 S 2 4 1 2 1022.0 1021.9 0.2
30/07:00am 17.8 19.5 16.1 90 1.0 S 2 6 1 3 1021.7 1021.6 0.2
30/06:30am 17.7 19.3 15.9 89 1.1 S 2 4 1 2 1021.5 1021.4 0.2
30/06:00am 17.6 19.5 15.8 89 1.1 CALM 0 0 0 0 1021.2 1021.1 0.2
30/05:30am 17.8 19.4 16.0 89 1.1 SE 2 4 1 2 1021.1 1021.0 0.2
30/05:00am 17.5 19.4 15.8 90 1.0 CALM 0 0 0 0 1020.9 1020.8 0.2
30/04:30am 17.6 19.6 15.9 90 1.0 CALM 0 4 0 2 1020.8 1020.7 0.2
30/04:00am 17.5 19.0 15.7 89 1.1 SSE 2 4 1 2 1020.6 1020.5 0.2
30/03:30am 17.5 19.4 15.7 89 1.1 CALM 0 0 0 0 1020.6 1020.5 0.2
30/03:00am 17.9 19.6 16.1 89 1.1 SE 2 6 1 3 1020.7 1020.6 0.2
30/02:30am 17.9 19.9 16.1 89 1.1 CALM 0 0 0 0 1020.8 1020.7 0.2
30/02:00am 18.1 20.2 16.3 89 1.1 CALM 0 0 0 0 1021.2 1021.1 0.0
30/01:30am 18.5 20.3 16.5 88 1.2 SE 2 4 1 2 1021.5 1021.4 0.0
30/01:00am 18.6 20.8 16.6 88 1.2 CALM 0 2 0 1 1021.8 1021.7 0.0
30/12:30am 19.1 21.5 17.1 88 1.2 CALM 0 0 0 0 1021.8 1021.7 0.0
30/12:00am 19.0 21.5 17.3 90 1.0 CALM 0 0 0 0 1021.9 1021.8 0.0
 
Date/Time
EST
Tmp

°C
App
Tmp
°C
Dew
Point
°C
Rel
Hum
%
Delta-T

°C
Wind Press
QNH
hPa
Press
MSL
hPa
Rain
since
9 am
mm
Dir
 
Spd
km/h
Gust
km/h
Spd
kts
Gust
kts
29/11:30pm 18.6 20.8 16.4 87 1.3 CALM 0 0 0 0 1022.5 1022.4 0.0
29/11:00pm 19.4 21.6 17.4 88 1.2 SE 2 4 1 2 1022.5 1022.4 0.0
29/10:30pm 19.8 22.4 17.4 86 1.5 CALM 0 0 0 0 1023.0 1022.8 0.0
29/10:00pm 19.7 22.3 17.5 87 1.3 CALM 0 0 0 0 1022.7 1022.6 0.0
29/09:30pm 20.2 22.8 17.6 85 1.6 CALM 0 0 0 0 1023.1 1022.9 0.0
29/09:00pm 20.4 23.0 17.6 84 1.7 CALM 0 4 0 2 1022.9 1022.7 0.0
29/08:30pm 21.1 23.9 17.9 82 2.0 CALM 0 2 0 1 1022.6 1022.5 0.0
29/08:00pm 21.1 23.6 17.3 79 2.3 CALM 0 0 0 0 1022.7 1022.6 0.0
29/07:30pm 21.1 23.2 17.1 78 2.4 SE 2 4 1 2 1022.3 1022.2 0.0
29/07:00pm 21.8 24.0 17.4 76 2.7 SE 2 4 1 2 1022.1 1022.0 0.0
29/06:30pm 21.6 23.3 17.2 76 2.7 E 4 6 2 3 1021.8 1021.7 0.0

Latest Capital City Observations: Canberra | Sydney | Melbourne | Brisbane | Adelaide | Perth | Hobart | Darwin

Other Formats:

Comma delimited format used in spreadsheet applications
http://www.bom.gov.au/fwo/IDQ60901/IDQ60901.95575.axf

JavaScript Object Notation format (JSON) in row-major order
http://www.bom.gov.au/fwo/IDQ60901/IDQ60901.95575.json